Time;durP1;ratioP1;P1;durP2;ratioP2;P2;SDS_P1;SDS_P2;PMS_P1;PMS_P2;Temp;Humidity;BMP_temperature;BMP_pressure;BME280_temperature;BME280_humidity;BME280_pressure;Samples;Min_cycle;Max_cycle;Signal;HPM_P1;HPM_P2
2021/04/18 00:00:05;;;;;;;;;;;;;;;-142.75;66.81;79069.06;5067151;28;20414;-70
2021/04/18 00:02:30;;;;;;;;;;;;;;;-142.75;66.83;79063.16;5052386;28;20010;-70
2021/04/18 00:04:55;;;;;;;;;;;;;;;-142.75;66.85;79059.22;5052561;28;20015;-70
2021/04/18 00:07:20;;;;;;;;;;;;;;;-142.75;66.99;79063.16;5052522;28;19920;-71
2021/04/18 00:09:46;;;;;;;;;;;;;;;-142.75;67.20;79059.22;5070410;28;19912;-70
2021/04/18 00:12:12;;;;;;;;;;;;;;;-142.75;67.10;79057.25;5070349;28;19954;-70
2021/04/18 00:14:38;;;;;;;;;;;;;;;-142.75;67.04;79057.25;5070457;28;19920;-70
2021/04/18 00:17:03;;;;;;;;;;;;;;;-142.75;67.12;79049.38;5052420;28;19919;-70
2021/04/18 00:19:33;;;;;;;;;;;;;;;-142.75;66.98;79057.25;5070139;28;19912;-70
2021/04/18 00:21:58;;;;;;;;;;;;;;;-142.75;66.98;79071.03;5070218;28;19916;-71
2021/04/18 00:24:23;;;;;;;;;;;;;;;-142.75;66.85;79057.25;5070351;28;19927;-71
2021/04/18 00:26:48;;;;;;;;;;;;;;;-142.75;66.96;79055.28;5052057;28;20061;-73
2021/04/18 00:29:14;;;;;;;;;;;;;;;-142.75;66.88;79055.28;5052993;28;19920;-70
2021/04/18 00:31:39;;;;;;;;;;;;;;;-142.75;66.69;79076.94;5051967;28;20395;-71
2021/04/18 00:34:04;;;;;;;;;;;;;;;-142.75;66.87;79067.09;5070007;28;20025;-70
2021/04/18 00:36:30;;;;;;;;;;;;;;;-142.75;67.05;79059.22;5070249;28;19934;-71
2021/04/18 00:38:56;;;;;;;;;;;;;;;-142.75;66.55;79063.16;5069667;28;19916;-70
2021/04/18 00:41:21;;;;;;;;;;;;;;;-142.75;66.88;79059.22;5069780;28;20267;-70
2021/04/18 00:43:46;;;;;;;;;;;;;;;-142.75;66.36;79102.56;5052304;28;19912;-70
2021/04/18 00:46:12;;;;;;;;;;;;;;;-142.75;65.99;79134.06;5054823;28;19964;-71
2021/04/18 00:48:41;;;;;;;;;;;;;;;-142.75;65.90;79149.81;5055871;28;20003;-69
2021/04/18 00:51:07;;;;;;;;;;;;;;;-142.75;67.32;79130.13;5073980;28;19912;-71
2021/04/18 00:53:32;;;;;;;;;;;;;;;-142.75;66.99;79145.88;5073611;28;20312;-70
2021/04/18 00:55:57;;;;;;;;;;;;;;;-142.75;66.35;79171.50;5056248;28;19915;-70
2021/04/18 00:58:22;;;;;;;;;;;;;;;-142.75;66.48;79187.25;5056161;28;19916;-70
2021/04/18 01:00:48;;;;;;;;;;;;;;;-142.75;66.64;79197.09;5074006;28;19924;-71
2021/04/18 01:03:13;;;;;;;;;;;;;;;-142.75;67.72;79165.59;5074009;28;20002;-70
2021/04/18 01:05:38;;;;;;;;;;;;;;;-142.75;68.20;79149.81;5055950;28;19916;-70
2021/04/18 01:08:09;;;;;;;;;;;;;;;-142.75;68.45;79118.31;5055582;28;19920;-70
2021/04/18 01:10:34;;;;;;;;;;;;;;;-142.75;67.88;79126.19;5073526;28;19947;-73
2021/04/18 01:12:59;;;;;;;;;;;;;;;-142.75;67.68;79138.00;5055814;28;19924;-72
2021/04/18 01:15:24;;;;;;;;;;;;;;;-142.75;67.39;79153.75;5073925;28;19913;-72
2021/04/18 01:17:49;;;;;;;;;;;;;;;-142.75;66.78;79191.19;5073517;28;20377;-73
2021/04/18 01:20:22;;;;;;;;;;;;;;;-142.75;66.76;79204.97;5055357;28;19913;-70
2021/04/18 01:22:48;;;;;;;;;;;;;;;-142.75;67.92;79179.38;5073506;28;19915;-70
2021/04/18 01:25:13;;;;;;;;;;;;;;;-142.75;68.01;79191.19;5073504;28;19982;-70
2021/04/18 01:27:42;;;;;;;;;;;;;;;-142.75;68.45;79169.53;5073466;28;19962;-70
2021/04/18 01:30:08;;;;;;;;;;;;;;;-142.75;69.00;79147.84;5056116;28;19966;-70
2021/04/18 01:32:33;;;;;;;;;;;;;;;-142.75;68.94;79130.13;5055099;28;20328;-70
2021/04/18 01:35:00;;;;;;;;;;;;;;;-142.75;69.05;79106.50;5055502;28;20003;-71
2021/04/18 01:37:25;;;;;;;;;;;;;;;-142.75;69.08;79100.59;5055740;28;20408;-71
2021/04/18 01:39:51;;;;;;;;;;;;;;;-142.75;68.95;79104.53;5051943;28;19912;-70
2021/04/18 01:42:18;;;;;;;;;;;;;;;-142.75;68.67;79100.59;5073009;28;20023;-70
2021/04/18 01:44:43;;;;;;;;;;;;;;;-142.75;68.42;79106.50;5073231;28;19919;-69
2021/04/18 01:47:08;;;;;;;;;;;;;;;-142.75;68.63;79100.59;5073067;28;19950;-70
2021/04/18 01:49:34;;;;;;;;;;;;;;;-142.75;68.43;79138.00;5055109;28;20273;-72
2021/04/18 01:51:59;;;;;;;;;;;;;;;-142.75;67.84;79161.66;5072594;28;19919;-70
2021/04/18 01:54:24;;;;;;;;;;;;;;;-142.75;67.75;79185.28;5072985;28;20373;-70
2021/04/18 01:56:49;;;;;;;;;;;;;;;-142.75;67.37;79195.13;5073027;28;19957;-70
2021/04/18 01:59:15;;;;;;;;;;;;;;;-142.75;67.56;79208.91;5073382;28;19912;-70
2021/04/18 02:01:40;;;;;;;;;;;;;;;-142.75;67.63;79216.78;5054669;28;20003;-70
2021/04/18 02:04:17;;;;;;;;;;;;;;;-142.75;68.29;79197.09;5072927;28;19962;-71
2021/04/18 02:06:42;;;;;;;;;;;;;;;-142.75;68.94;79153.75;5072588;28;20003;-70
2021/04/18 02:09:08;;;;;;;;;;;;;;;-142.75;68.84;79169.53;5072730;28;19962;-70
2021/04/18 02:11:36;;;;;;;;;;;;;;;-142.75;68.46;79201.03;5072562;28;19920;-70
2021/04/18 02:14:02;;;;;;;;;;;;;;;-142.75;67.84;79226.66;5054723;28;19912;-70
2021/04/18 02:16:27;;;;;;;;;;;;;;;-142.75;68.00;79220.75;5072598;28;20010;-70
2021/04/18 02:18:52;;;;;;;;;;;;;;;-142.75;68.52;79208.91;5054189;28;19920;-70
2021/04/18 02:21:17;;;;;;;;;;;;;;;-142.75;68.11;79228.63;5072073;28;19912;-69
2021/04/18 02:23:42;;;;;;;;;;;;;;;-142.75;68.91;79197.09;5072614;28;19912;-70
2021/04/18 02:26:08;;;;;;;;;;;;;;;-142.75;69.54;79173.47;5072130;28;20393;-70
2021/04/18 02:28:33;;;;;;;;;;;;;;;-142.75;68.86;79220.75;5054692;28;19912;-70
2021/04/18 02:30:58;;;;;;;;;;;;;;;-142.75;69.49;79193.16;5054588;28;19927;-70
2021/04/18 02:33:23;;;;;;;;;;;;;;;-142.75;69.57;79201.03;5053969;28;19961;-70
2021/04/18 02:35:48;;;;;;;;;;;;;;;-142.75;69.58;79187.25;5071630;28;20298;-70
2021/04/18 02:38:14;;;;;;;;;;;;;;;-142.75;69.72;79197.09;5054291;28;20282;-69
2021/04/18 02:40:39;;;;;;;;;;;;;;;-142.75;69.38;79218.75;5053456;28;19916;-70
2021/04/18 02:43:04;;;;;;;;;;;;;;;-142.75;68.97;79254.22;5072153;28;19927;-70
2021/04/18 02:45:29;;;;;;;;;;;;;;;-142.75;68.60;79271.94;5054030;28;20285;-70
2021/04/18 02:47:54;;;;;;;;;;;;;;;-142.75;68.71;79279.84;5072051;28;19920;-69
2021/04/18 02:50:20;;;;;;;;;;;;;;;-142.75;68.87;79281.81;5053839;28;19981;-69
2021/04/18 02:52:45;;;;;;;;;;;;;;;-142.75;69.44;79252.25;5071783;28;19912;-70
2021/04/18 02:55:10;;;;;;;;;;;;;;;-142.75;69.29;79279.84;5054095;28;20270;-70
2021/04/18 02:57:35;;;;;;;;;;;;;;;-142.75;69.03;79297.56;5071722;28;19912;-70
2021/04/18 03:00:00;;;;;;;;;;;;;;;-142.75;68.62;79307.41;5054474;28;19919;-71
2021/04/18 03:02:26;;;;;;;;;;;;;;;-142.75;68.29;79315.28;5071254;28;19912;-70
2021/04/18 03:04:52;;;;;;;;;;;;;;;-142.75;68.40;79327.09;5071729;28;20285;-71
2021/04/18 03:07:17;;;;;;;;;;;;;;;-142.75;68.89;79340.91;5071267;28;19971;-70
2021/04/18 03:09:43;;;;;;;;;;;;;;;-142.75;68.90;79336.94;5071214;28;19952;-70
2021/04/18 03:12:08;;;;;;;;;;;;;;;-142.75;69.06;79336.94;5053161;28;19913;-70
2021/04/18 03:14:33;;;;;;;;;;;;;;;-142.75;69.02;79335.00;5071508;28;19912;-70
2021/04/18 03:16:58;;;;;;;;;;;;;;;-142.75;69.04;79323.16;5053569;28;20373;-70
2021/04/18 03:19:24;;;;;;;;;;;;;;;-142.75;69.12;79305.44;5070954;28;19912;-70
2021/04/18 03:21:49;;;;;;;;;;;;;;;-142.75;68.85;79299.53;5053150;28;19919;-70
2021/04/18 03:24:14;;;;;;;;;;;;;;;-142.75;68.79;79287.72;5071213;28;20003;-72
2021/04/18 03:26:39;;;;;;;;;;;;;;;-142.75;69.13;79260.13;5053345;28;19924;-70
2021/04/18 03:29:05;;;;;;;;;;;;;;;-142.75;69.00;79266.03;5071586;28;20374;-71
2021/04/18 03:31:30;;;;;;;;;;;;;;;-142.75;68.94;79264.06;5070728;28;19919;-70
2021/04/18 03:33:55;;;;;;;;;;;;;;;-142.75;68.99;79252.25;5053287;28;20412;-71
2021/04/18 03:36:48;;;;;;;;;;;;;;;-142.75;69.06;79248.31;5053182;28;19912;-70
2021/04/18 03:39:13;;;;;;;;;;;;;;;-142.75;69.54;79210.88;5069283;28;19919;-70
2021/04/18 03:41:39;;;;;;;;;;;;;;;-142.75;69.47;79220.75;5070761;28;19912;-71
2021/04/18 03:44:04;;;;;;;;;;;;;;;-142.75;69.61;79212.84;5071002;28;19915;-71
2021/04/18 03:46:29;;;;;;;;;;;;;;;-142.75;69.57;79216.78;5053157;28;19965;-70
2021/04/18 03:48:54;;;;;;;;;;;;;;;-142.75;69.15;79236.50;5070706;28;20400;-69
2021/04/18 03:51:19;;;;;;;;;;;;;;;-142.75;69.15;79238.47;5070622;28;19912;-70
2021/04/18 03:56:26;;;;;;;;;;;;;;;-142.75;69.73;79208.91;5065544;28;19952;-72
2021/04/18 03:58:51;;;;;;;;;;;;;;;-142.75;69.35;79234.53;5051356;28;19963;-74
2021/04/18 04:01:16;;;;;;;;;;;;;;;-142.75;69.27;79240.44;5052570;28;19919;-73
2021/04/18 04:03:41;;;;;;;;;;;;;;;-142.75;69.43;79244.38;5052781;28;19919;-74
2021/04/18 04:06:06;;;;;;;;;;;;;;;-142.75;69.82;79240.44;5089643;28;19920;-74
2021/04/18 04:08:32;;;;;;;;;;;;;;;-142.75;70.39;79222.72;5090232;28;20297;-73
2021/04/18 04:10:58;;;;;;;;;;;;;;;-142.75;70.52;79224.69;5072252;28;20020;-72
2021/04/18 04:13:23;;;;;;;;;;;;;;;-142.75;70.49;79236.50;5090431;28;19920;-72
2021/04/18 04:15:48;;;;;;;;;;;;;;;-142.75;70.30;79242.41;5090098;28;19961;-72
2021/04/18 04:18:14;;;;;;;;;;;;;;;-142.75;69.80;79260.13;5072596;28;19912;-72
2021/04/18 04:20:39;;;;;;;;;;;;;;;-142.75;69.35;79273.91;5089294;28;19927;-72
2021/04/18 04:23:04;;;;;;;;;;;;;;;-142.75;68.81;79287.72;5090554;28;19912;-72
2021/04/18 04:25:30;;;;;;;;;;;;;;;-142.75;68.60;79299.53;5072527;28;19916;-71
2021/04/18 04:27:55;;;;;;;;;;;;;;;-142.75;68.21;79307.41;5090490;28;19931;-71
2021/04/18 04:30:21;;;;;;;;;;;;;;;-142.75;67.84;79311.34;5072915;28;19931;-72
2021/04/18 04:32:46;;;;;;;;;;;;;;;-142.75;68.27;79311.34;5090187;28;20069;-72
2021/04/18 04:35:12;;;;;;;;;;;;;;;-142.75;68.93;79297.56;5090426;28;19912;-72
2021/04/18 04:37:37;;;;;;;;;;;;;;;-142.75;69.30;79287.72;5090536;28;19918;-72
2021/04/18 04:40:03;;;;;;;;;;;;;;;-142.75;69.99;79246.34;5090127;28;19912;-72
2021/04/18 04:42:28;;;;;;;;;;;;;;;-142.75;71.53;79220.75;5071729;28;20563;-73
2021/04/18 04:44:53;;;;;;;;;;;;;;;-142.75;71.63;79220.75;5089691;28;20381;-74
2021/04/18 04:47:18;;;;;;;;;;;;;;;-142.75;71.46;79232.56;5090113;28;19916;-71
2021/04/18 04:49:44;;;;;;;;;;;;;;;-142.75;72.30;79201.03;5072062;28;19912;-72
2021/04/18 04:52:10;;;;;;;;;;;;;;;-142.75;72.87;79187.25;5089860;28;19912;-74
2021/04/18 04:54:36;;;;;;;;;;;;;;;-142.75;73.22;79193.16;5090135;28;19965;-74
2021/04/18 04:57:01;;;;;;;;;;;;;;;-142.75;73.47;79191.19;5090155;28;19919;-71
2021/04/18 04:59:26;;;;;;;;;;;;;;;-142.75;73.46;79189.22;5090594;28;19912;-72
2021/04/18 05:01:51;;;;;;;;;;;;;;;-142.75;73.34;79181.34;5071850;28;19912;-74
2021/04/18 05:04:16;;;;;;;;;;;;;;;-142.75;73.25;79173.47;5071505;28;19912;-72
2021/04/18 05:06:41;;;;;;;;;;;;;;;-142.75;73.15;79187.25;5069906;28;19970;-72
2021/04/18 05:09:07;;;;;;;;;;;;;;;-142.75;72.86;79216.78;5068759;28;19944;-72
2021/04/18 05:11:32;;;;;;;;;;;;;;;-142.75;72.54;79236.50;5068311;28;19919;-71
2021/04/18 05:13:57;;;;;;;;;;;;;;;-142.75;72.36;79248.31;5069832;28;20325;-72
2021/04/18 05:16:22;;;;;;;;;;;;;;;-142.75;71.84;79256.19;5069793;28;19938;-72
2021/04/18 05:18:47;;;;;;;;;;;;;;;-142.75;71.44;79260.13;5069906;28;20354;-72
2021/04/18 05:21:13;;;;;;;;;;;;;;;-142.75;71.13;79258.16;5069529;28;19958;-71
2021/04/18 05:23:38;;;;;;;;;;;;;;;-142.75;70.74;79244.38;5070001;28;19912;-72
2021/04/18 05:26:03;;;;;;;;;;;;;;;-142.75;70.44;79232.56;5069748;28;19928;-72
2021/04/18 05:28:28;;;;;;;;;;;;;;;-142.75;70.00;79222.72;5068516;28;19963;-72
2021/04/18 05:30:55;;;;;;;;;;;;;;;-142.75;69.87;79224.69;5069031;28;20421;-70
2021/04/18 05:33:20;;;;;;;;;;;;;;;-142.75;69.57;79216.78;5071935;28;19916;-72
2021/04/18 05:35:45;;;;;;;;;;;;;;;-142.75;69.42;79197.09;5072109;28;19919;-71
2021/04/18 05:38:11;;;;;;;;;;;;;;;-142.75;69.07;79189.22;5072087;28;19912;-72
2021/04/18 05:40:36;;;;;;;;;;;;;;;-142.75;69.07;79141.94;5071444;28;20433;-71
2021/04/18 05:43:01;;;;;;;;;;;;;;;-142.75;69.52;79059.22;5072915;28;19995;-72
2021/04/18 05:45:26;;;;;;;;;;;;;;;-142.75;69.29;78954.81;5073071;28;19920;-72
2021/04/18 05:47:51;;;;;;;;;;;;;;;-142.75;67.94;78854.38;5072992;28;20294;-72
2021/04/18 05:50:17;;;;;;;;;;;;;;;-142.75;64.84;78830.75;5073207;28;20401;-73
2021/04/18 05:52:44;;;;;;;;;;;;;;;-142.75;64.38;78799.22;5071550;28;19920;-73
2021/04/18 05:55:09;;;;;;;;;;;;;;;-142.75;63.79;78651.50;5072670;28;20012;-72
2021/04/18 05:57:35;;;;;;;;;;;;;;;-142.75;61.22;78555.00;5073015;28;19999;-72
2021/04/18 06:00:00;;;;;;;;;;;;;;;-142.75;59.31;78499.88;5073252;28;20003;-73
2021/04/18 06:02:25;;;;;;;;;;;;;;;-142.75;58.85;78497.91;5072489;28;19913;-72
2021/04/18 06:04:50;;;;;;;;;;;;;;;-142.75;58.26;78411.25;5090745;28;19946;-72
2021/04/18 06:07:16;;;;;;;;;;;;;;;-142.75;56.78;78310.81;5074940;28;19981;-72
2021/04/18 06:09:41;;;;;;;;;;;;;;;-142.75;54.15;78180.81;5075190;28;20398;-72
2021/04/18 06:12:06;;;;;;;;;;;;;;;-142.75;52.72;78086.31;5072537;28;19951;-72
2021/04/18 06:14:32;;;;;;;;;;;;;;;-142.75;51.24;78062.69;5073079;28;19928;-72
2021/04/18 06:16:57;;;;;;;;;;;;;;;-142.75;50.39;77981.94;5072930;28;19912;-72
2021/04/18 06:19:22;;;;;;;;;;;;;;;-142.75;49.38;77960.28;5071299;28;19958;-72
2021/04/18 06:21:47;;;;;;;;;;;;;;;-142.75;48.83;77930.75;5072877;28;20078;-73
2021/04/18 06:24:13;;;;;;;;;;;;;;;-142.75;48.63;77952.41;5072379;28;19913;-73
2021/04/18 06:26:38;;;;;;;;;;;;;;;-142.75;48.66;77979.97;5077558;28;19916;-72
2021/04/18 06:29:03;;;;;;;;;;;;;;;-142.75;49.67;78050.84;5092716;28;19927;-73
2021/04/18 06:31:28;;;;;;;;;;;;;;;-142.75;49.95;78082.38;5092457;28;19951;-73
2021/04/18 06:33:53;;;;;;;;;;;;;;;-142.75;50.74;78094.19;5092537;28;19993;-71
2021/04/18 06:36:19;;;;;;;;;;;;;;;-142.75;51.27;78176.88;5092432;28;19947;-72
2021/04/18 06:38:44;;;;;;;;;;;;;;;-142.75;52.36;78170.97;5091944;28;20407;-71
2021/04/18 06:41:14;;;;;;;;;;;;;;;-142.75;51.78;78078.44;5091795;28;19937;-72
2021/04/18 06:43:40;;;;;;;;;;;;;;;-142.75;49.60;77960.28;5090908;28;19911;-72
2021/04/18 06:46:06;;;;;;;;;;;;;;;-142.75;47.81;77828.34;5073809;28;19919;-72
2021/04/18 06:48:31;;;;;;;;;;;;;;;-142.75;45.96;77814.56;5091920;28;19973;-72
2021/04/18 06:50:57;;;;;;;;;;;;;;;-142.75;46.36;77826.38;5073660;28;20003;-72
2021/04/18 06:53:22;;;;;;;;;;;;;;;-142.75;45.81;77794.88;5082681;28;19912;-71
2021/04/18 06:55:47;;;;;;;;;;;;;;;-142.75;44.71;77723.97;5070850;28;20387;-71
2021/04/18 06:58:12;;;;;;;;;;;;;;;-142.75;45.03;77842.13;5069602;28;19912;-73
2021/04/18 07:00:37;;;;;;;;;;;;;;;-142.75;46.39;77928.78;5070975;28;19912;-73
2021/04/18 07:03:16;;;;;;;;;;;;;;;-142.75;46.72;77964.22;5070923;28;19944;-73
2021/04/18 07:05:46;;;;;;;;;;;;;;;-142.75;47.53;77944.53;5070733;28;19958;-73
2021/04/18 07:08:28;;;;;;;;;;;;;;;-142.75;47.36;77968.16;5070639;28;19952;-73
2021/04/18 07:11:10;;;;;;;;;;;;;;;-142.75;48.49;78054.81;5070490;28;20326;-73
2021/04/18 07:13:35;;;;;;;;;;;;;;;-142.75;49.88;78192.66;5070661;28;20356;-72
2021/04/18 07:16:01;;;;;;;;;;;;;;;-142.75;50.67;78190.69;5069352;28;19995;-72
2021/04/18 07:18:39;;;;;;;;;;;;;;;-142.75;50.83;78107.97;5070347;28;19916;-72
2021/04/18 07:21:04;;;;;;;;;;;;;;;-142.75;48.76;78066.63;5070391;28;19912;-73
2021/04/18 07:23:31;;;;;;;;;;;;;;;-142.75;49.80;78084.34;5070362;28;19916;-73
2021/04/18 07:26:15;;;;;;;;;;;;;;;-142.75;48.65;78072.53;5070513;28;19969;-72
2021/04/18 07:28:40;;;;;;;;;;;;;;;-142.75;47.34;77911.06;5069657;28;19949;-72
2021/04/18 07:31:05;;;;;;;;;;;;;;;-142.75;45.47;77763.38;5070555;28;19912;-73
2021/04/18 07:33:30;;;;;;;;;;;;;;;-142.75;43.64;77643.25;5068555;28;19920;-73
2021/04/18 07:35:55;;;;;;;;;;;;;;;-142.75;43.22;77574.34;5070071;28;19958;-72
2021/04/18 07:38:22;;;;;;;;;;;;;;;-142.75;42.83;77651.13;5069895;28;19934;-73
2021/04/18 07:40:48;;;;;;;;;;;;;;;-142.75;43.34;77635.38;5077576;28;20373;-72
2021/04/18 07:43:14;;;;;;;;;;;;;;;-142.75;44.07;77771.25;5090305;28;19912;-73
2021/04/18 07:45:42;;;;;;;;;;;;;;;-142.75;44.59;77783.06;5090187;28;19918;-72
2021/04/18 07:48:12;;;;;;;;;;;;;;;-142.75;44.14;77714.13;5072063;28;19923;-72
2021/04/18 07:50:38;;;;;;;;;;;;;;;-142.75;43.28;77558.59;5072057;28;19981;-73
2021/04/18 07:53:03;;;;;;;;;;;;;;;-142.75;42.42;77550.72;5089911;28;19966;-73
2021/04/18 07:55:30;;;;;;;;;;;;;;;-142.75;41.52;77426.66;5071663;28;537980;-73
2021/04/18 07:57:55;;;;;;;;;;;;;;;-142.75;40.17;77424.69;5090928;28;19938;-73
2021/04/18 08:00:20;;;;;;;;;;;;;;;-142.75;40.54;77365.63;5073047;28;19916;-74
2021/04/18 08:02:47;;;;;;;;;;;;;;;-142.75;39.50;77434.53;5072977;28;20396;-73
2021/04/18 08:05:13;;;;;;;;;;;;;;;-142.75;41.54;77471.97;5090613;28;19959;-74
2021/04/18 08:07:56;;;;;;;;;;;;;;;-142.75;40.80;77448.34;5090858;28;20042;-73
2021/04/18 08:10:25;;;;;;;;;;;;;;;-142.75;38.84;77377.44;5090524;28;19912;-72
2021/04/18 08:13:09;;;;;;;;;;;;;;;-142.75;41.19;77613.72;5080395;28;19985;-73
2021/04/18 08:15:36;;;;;;;;;;;;;;;-142.75;41.80;77637.34;5071466;28;19912;-72
2021/04/18 08:18:06;;;;;;;;;;;;;;;-142.75;41.54;77487.72;5068335;28;20006;-73
2021/04/18 08:20:33;;;;;;;;;;;;;;;-142.75;39.21;77381.38;5069123;28;19965;-73
2021/04/18 08:23:00;;;;;;;;;;;;;;;-142.75;38.30;77206.16;5070501;28;19919;-73
2021/04/18 08:25:25;;;;;;;;;;;;;;;-142.75;37.60;77247.50;5070201;28;20292;-72
2021/04/18 08:28:12;;;;;;;;;;;;;;;-142.75;37.41;77231.75;5070434;28;19924;-73
2021/04/18 08:30:56;;;;;;;;;;;;;;;-142.75;36.77;77223.88;5070916;28;19912;-73
2021/04/18 08:33:40;;;;;;;;;;;;;;;-142.75;38.04;77204.19;5069348;28;19919;-73
2021/04/18 08:36:09;;;;;;;;;;;;;;;-142.75;36.53;77133.31;5070115;28;19913;-72
2021/04/18 08:38:35;;;;;;;;;;;;;;;-142.75;36.96;77139.22;5070809;28;19912;-74
2021/04/18 08:41:04;;;;;;;;;;;;;;;-142.75;35.87;77007.31;5069903;28;20417;-72
2021/04/18 08:43:29;;;;;;;;;;;;;;;-142.75;34.62;76989.59;5070535;28;19913;-74
2021/04/18 08:45:55;;;;;;;;;;;;;;;-142.75;34.34;76944.31;5069882;28;19920;-74
2021/04/18 08:48:20;;;;;;;;;;;;;;;-142.75;34.02;76879.34;5065377;28;20389;-74
2021/04/18 08:50:52;;;;;;;;;;;;;;;-142.75;33.71;76826.19;5069673;28;19974;-74
2021/04/18 08:53:17;;;;;;;;;;;;;;;-142.75;31.88;76901.00;5070052;28;20005;-74
2021/04/18 08:55:52;;;;;;;;;;;;;;;-142.75;33.82;76865.56;5068503;28;19978;-74
2021/04/18 08:58:36;;;;;;;;;;;;;;;-142.75;32.88;76790.78;5068886;28;19913;-73
2021/04/18 09:01:02;;;;;;;;;;;;;;;-142.75;32.05;76704.16;5070538;28;19912;-74
2021/04/18 09:03:28;;;;;;;;;;;;;;;-142.75;32.50;76759.28;5070046;28;19920;-73
2021/04/18 09:06:13;;;;;;;;;;;;;;;-142.75;32.84;76727.78;5068885;28;19912;-73
2021/04/18 09:08:48;;;;;;;;;;;;;;;-142.75;32.39;76643.13;5073260;28;20294;-74
2021/04/18 09:11:13;;;;;;;;;;;;;;;-142.75;31.41;76649.03;5073637;28;19928;-73
2021/04/18 09:13:51;;;;;;;;;;;;;;;-142.75;31.56;76714.00;5072651;28;19919;-73
2021/04/18 09:16:23;;;;;;;;;;;;;;;-142.75;31.30;76668.72;5073519;28;20339;-73
2021/04/18 09:18:48;;;;;;;;;;;;;;;-142.75;30.59;76613.59;5072545;28;19962;-74
2021/04/18 09:21:14;;;;;;;;;;;;;;;-142.75;31.33;76597.84;5077000;28;20328;-74
2021/04/18 09:23:58;;;;;;;;;;;;;;;-142.75;30.75;76599.81;5073632;28;19912;-71
2021/04/18 09:26:24;;;;;;;;;;;;;;;-142.75;31.70;76672.66;5073200;28;20026;-73
2021/04/18 09:29:05;;;;;;;;;;;;;;;-142.75;31.06;76597.84;5073624;28;19998;-73
2021/04/18 09:31:30;;;;;;;;;;;;;;;-142.75;30.80;76578.16;5072568;28;19912;-74
2021/04/18 09:34:05;;;;;;;;;;;;;;;-142.75;30.43;76517.16;5073309;28;20378;-72
2021/04/18 09:36:31;;;;;;;;;;;;;;;-142.75;29.82;76605.72;5072003;28;19923;-73
2021/04/18 09:38:56;;;;;;;;;;;;;;;-142.75;30.50;76595.88;5075385;28;19912;-73
2021/04/18 09:41:22;;;;;;;;;;;;;;;-142.75;29.37;76613.59;5074917;28;20002;-73
2021/04/18 09:43:59;;;;;;;;;;;;;;;-142.75;30.11;76538.78;5072082;28;19916;-73
2021/04/18 09:46:24;;;;;;;;;;;;;;;-142.75;30.16;76540.75;5073137;28;19912;-73
2021/04/18 09:48:56;;;;;;;;;;;;;;;-142.75;29.66;76611.63;5073213;28;20285;-71
2021/04/18 09:51:21;;;;;;;;;;;;;;;-142.75;29.75;76538.78;5072695;28;19969;-71
2021/04/18 09:54:06;;;;;;;;;;;;;;;-142.75;30.31;76649.03;5073171;28;20332;-73
2021/04/18 09:56:32;;;;;;;;;;;;;;;-142.75;31.09;76652.97;5075852;22;19920;-72
2021/04/18 09:59:15;;;;;;;;;;;;;;;-142.75;30.12;76593.91;5050472;28;20466;-70
2021/04/18 10:01:41;;;;;;;;;;;;;;;-142.75;30.54;76525.03;5058862;28;19916;-69
2021/04/18 10:04:25;;;;;;;;;;;;;;;-142.75;29.14;76473.84;5072967;28;19912;-73
2021/04/18 10:06:50;;;;;;;;;;;;;;;-142.75;29.34;76440.38;5059006;28;20540;-71
2021/04/18 10:09:15;;;;;;;;;;;;;;;-142.75;29.04;76440.38;5034638;28;19952;-71
2021/04/18 10:11:40;;;;;;;;;;;;;;;-142.75;29.71;76450.22;5052522;28;19944;-69
2021/04/18 10:14:17;;;;;;;;;;;;;;;-142.75;28.83;76412.81;5052578;28;20004;-71
2021/04/18 10:16:42;;;;;;;;;;;;;;;-142.75;28.48;76397.06;5050935;28;20420;-71
2021/04/18 10:19:10;;;;;;;;;;;;;;;-142.75;28.07;76399.03;5051532;28;19944;-78
2021/04/18 10:21:36;;;;;;;;;;;;;;;-142.75;27.98;76485.66;5053658;28;19974;-71
2021/04/18 10:24:01;;;;;;;;;;;;;;;-142.75;27.68;76554.53;5071729;28;20003;-70
2021/04/18 10:26:26;;;;;;;;;;;;;;;-142.75;29.08;76458.09;5072277;28;19960;-71
2021/04/18 10:28:53;;;;;;;;;;;;;;;-142.75;28.98;76497.47;5072025;28;19912;-71
2021/04/18 10:31:20;;;;;;;;;;;;;;;-142.75;27.99;76452.19;5054499;28;20355;-72
2021/04/18 10:33:45;;;;;;;;;;;;;;;-142.75;28.07;76373.44;5053887;28;19918;-71
2021/04/18 10:36:11;;;;;;;;;;;;;;;-142.75;27.99;76420.69;5054169;28;19912;-72
2021/04/18 10:38:37;;;;;;;;;;;;;;;-142.75;28.53;76355.72;5054375;28;19912;-71
2021/04/18 10:41:03;;;;;;;;;;;;;;;-142.75;27.36;76304.56;5053795;28;20003;-71
2021/04/18 10:43:28;;;;;;;;;;;;;;;-142.75;27.83;76312.44;5072184;28;19940;-71
2021/04/18 10:45:53;;;;;;;;;;;;;;;-142.75;27.24;76422.66;5065718;28;19960;-71
2021/04/18 10:48:19;;;;;;;;;;;;;;;-142.75;26.94;76418.72;5034006;28;19916;-72
2021/04/18 10:50:44;;;;;;;;;;;;;;;-142.75;27.25;76412.81;5036582;28;19916;-71
2021/04/18 10:53:10;;;;;;;;;;;;;;;-142.75;27.53;76530.91;5051783;28;19927;-73
2021/04/18 10:55:35;;;;;;;;;;;;;;;-142.75;27.66;76458.09;5067317;28;19913;-71
2021/04/18 10:58:00;;;;;;;;;;;;;;;-142.75;27.59;76399.03;5048899;28;20366;-71
2021/04/18 11:00:27;;;;;;;;;;;;;;;-142.75;27.18;76353.78;5071917;28;20003;-76
2021/04/18 11:02:52;;;;;;;;;;;;;;;-142.75;25.93;76371.47;5071569;28;20285;-71
2021/04/18 11:05:18;;;;;;;;;;;;;;;-142.75;26.06;76343.94;5069285;28;19916;-71
2021/04/18 11:07:43;;;;;;;;;;;;;;;-142.75;27.04;76389.19;5051528;28;19920;-71
2021/04/18 11:10:08;;;;;;;;;;;;;;;-142.75;28.79;76586.03;5051498;28;19974;-70
2021/04/18 11:12:33;;;;;;;;;;;;;;;-142.75;28.72;76464.00;5049955;28;19923;-70
2021/04/18 11:14:59;;;;;;;;;;;;;;;-142.75;27.54;76479.75;5050274;28;20367;-70
2021/04/18 11:17:24;;;;;;;;;;;;;;;-142.75;28.01;76491.56;5049977;28;19959;-71
2021/04/18 11:19:50;;;;;;;;;;;;;;;-142.75;28.66;76491.56;5050282;28;19919;-73
2021/04/18 11:22:16;;;;;;;;;;;;;;;-142.75;26.96;76517.16;5049775;28;19913;-74
2021/04/18 11:24:41;;;;;;;;;;;;;;;-142.75;28.11;76452.19;5050081;28;19936;-71
2021/04/18 11:27:06;;;;;;;;;;;;;;;-142.75;27.54;76491.56;5051599;28;19924;-71
2021/04/18 11:29:33;;;;;;;;;;;;;;;-142.75;26.83;76456.13;5033746;28;19912;-70
2021/04/18 11:31:58;;;;;;;;;;;;;;;-142.75;27.49;76586.03;5051592;28;20387;-71
2021/04/18 11:34:23;;;;;;;;;;;;;;;-142.75;27.88;76757.31;5051791;28;20156;-71
2021/04/18 11:36:48;;;;;;;;;;;;;;;-142.75;29.30;76678.56;5050072;28;19920;-72
2021/04/18 11:39:13;;;;;;;;;;;;;;;-142.75;28.92;76611.63;5051608;28;19951;-71
2021/04/18 11:41:39;;;;;;;;;;;;;;;-142.75;28.79;76601.78;5051196;28;20344;-72
2021/04/18 11:44:05;;;;;;;;;;;;;;;-142.75;28.29;76723.84;5051695;28;20299;-71
2021/04/18 11:46:31;;;;;;;;;;;;;;;-142.75;31.45;76849.81;5051476;28;19916;-70
2021/04/18 11:48:56;;;;;;;;;;;;;;;-142.75;31.63;76920.69;5051496;28;19970;-73
2021/04/18 11:51:21;;;;;;;;;;;;;;;-142.75;30.48;77015.19;5051115;28;19913;-71
2021/04/18 11:53:46;;;;;;;;;;;;;;;-142.75;31.39;77149.06;5051495;28;19954;-70
2021/04/18 11:56:12;;;;;;;;;;;;;;;-142.75;33.30;77168.75;5033305;28;19912;-73
2021/04/18 11:58:37;;;;;;;;;;;;;;;-142.75;34.58;77182.53;5051473;28;19964;-70
2021/04/18 12:01:02;;;;;;;;;;;;;;;-142.75;35.16;77219.94;5033108;28;20291;-73
2021/04/18 12:03:28;;;;;;;;;;;;;;;-142.75;34.55;77251.44;5051377;28;19920;-71
2021/04/18 12:05:55;;;;;;;;;;;;;;;-142.75;35.04;77300.66;5051156;28;19920;-71
2021/04/18 12:08:20;;;;;;;;;;;;;;;-142.75;35.84;77310.50;5050594;28;20290;-70
2021/04/18 12:10:45;;;;;;;;;;;;;;;-142.75;36.29;77310.50;5050902;28;19927;-70
2021/04/18 12:13:10;;;;;;;;;;;;;;;-142.75;35.71;77324.28;5051155;28;19935;-71
2021/04/18 12:15:36;;;;;;;;;;;;;;;-142.75;35.74;77399.09;5051093;28;19913;-71
2021/04/18 12:18:01;;;;;;;;;;;;;;;-142.75;38.09;77414.84;5032937;28;20378;-72
2021/04/18 12:20:26;;;;;;;;;;;;;;;-142.75;36.38;77385.31;5050903;28;19920;-73
2021/04/18 12:22:51;;;;;;;;;;;;;;;-142.75;38.05;77387.28;5050911;28;20007;-72
2021/04/18 12:25:17;;;;;;;;;;;;;;;-142.75;36.93;77397.13;5062646;28;19916;-71